Piracanjuba, Brazil
Current Conditions -  °F | °C
As of 12:00 AM on Thursday 23 Oct 2014 (Local Time) from SBGO Reporting Station
Thunderstorm Thunderstorm  
Wind Chill: 73°   Ceiling: Unl
Heat Index: 73°   Visibility: 6mi
Dew Point: 61°   Wind: 14mph
Humidity: 65%   Direction: 40°NE
Pressure: 30.06"   Gusts: NA
Location:  17.3°S, 49.02°W
Report Text: SBGO 230200Z 04012KT 9999 -RA VCTS FEW035CB SCT080 23/16 Q1018
Loading
Personal Weather Stations






























Interactive Weather Map
Tropical Storm Tracking
New forecast layout! Learn more

10-Day Weather Forecast

Advertisements
Track Severe Weather on mobile